• Join FlightAware (Why Join?)
  • Login
  • US Flag 
05:30PM EDT


 

Airport Tracker/Info


-or-


 

Live Flight TrackerFlight Track Log ✈ RPA3392 ✈ 09-Jun-2013 ✈ KMSP - KDCA

Flight Track Log - Related Links

Times and Time Zones

All times are in EDT time to prevent confusion due to time zone crossing. See the RPA3392 flight status page for this flight to view local times or setup timezone preferences in your user account.

Time Position Orientation Groundspeed Altitude Reporting Facility
EDT Latitude Longitude Course Direction KTS MPH feet Rate Location/Type
05:54PM 44.8333 -93.1833 117° Southeast 183 211 2,800  Level Minneapolis TRACON
05:56PM 44.7981 -93.0986 120° Southeast 232 267 5,100 2,040 Climbing Minneapolis Center
05:57PM 44.7706 -93.0031 112° Southeast 260 299 7,500 2,220 Climbing Minneapolis Center
05:58PM 44.7436 -92.9017 110° East 275 316 9,800 2,100 Climbing Minneapolis Center
05:59PM 44.7147 -92.7939 111° Southeast 294 338 11,900 1,860 Climbing Minneapolis Center
06:00PM 44.6115 -92.3691 117° Southeast  Level FlightAware Approximate
06:00PM 44.6767 -92.6544 111° Southeast 323 372 13,700  Level Minneapolis Center
06:01PM 44.6444 -92.5333 110° East 332 382 15,800 1,860 Climbing Minneapolis Center
06:02PM 44.6114 -92.4111 111° Southeast 336 387 17,600 1,560 Climbing Minneapolis Center
06:03PM 44.5686 -92.2911 117° Southeast 342 394 19,100 1,500 Climbing Minneapolis Center
06:04PM 44.5217 -92.1719 119° Southeast 348 400 20,700 1,440 Climbing Minneapolis Center
06:05PM 44.4742 -92.0492 118° Southeast 357 411 22,100 1,200 Climbing Minneapolis Center
06:06PM 44.4261 -91.9244 118° Southeast 365 420 23,300 1,200 Climbing Minneapolis Center
06:07PM 44.3664 -91.7728 119° Southeast 371 427 24,700 1,080 Climbing Minneapolis Center
06:08PM 44.3150 -91.6425 119° Southeast 380 437 25,600 960 Climbing Minneapolis Center
06:09PM 44.2628 -91.5094 119° Southeast 389 448 26,800 1,020 Climbing Minneapolis Center
06:10PM 44.2106 -91.3753 118° Southeast 394 453 27,800 1,020 Climbing Minneapolis Center
06:11PM 44.1542 -91.2369 120° Southeast 402 463 28,900 1,140 Climbing Minneapolis Center
06:12PM 44.0994 -91.0997 119° Southeast 406 467 30,200 960 Climbing Minneapolis Center
06:13PM 44.0450 -90.9633 119° Southeast 405 466 31,000 960 Climbing Minneapolis Center
06:14PM 43.9800 -90.8017 119° Southeast 403 464 32,300 1,140 Climbing Minneapolis Center
06:15PM 43.9256 -90.6669 119° Southeast 403 464 33,400 960 Climbing Minneapolis Center
06:16PM 43.9036 -90.6147 120° Southeast 401 461 33,800 1,020 Climbing Chicago Center
06:16PM 43.8694 -90.5311 120° Southeast 399 459 34,500 720 Climbing Minneapolis Center
06:17PM 43.8156 -90.3994 120° Southeast 395 455 35,000 240 Climbing Minneapolis Center
06:18PM 43.7642 -90.2744 120° Southeast 392 451 35,000  Level Minneapolis Center
06:19PM 43.7089 -90.1083 115° Southeast 396 456 35,000  Level Minneapolis Center
06:20PM 43.6833 -89.9597 103° East 396 456 35,000  Level Minneapolis Center
06:21PM 43.6581 -89.8125 103° East 397 457 35,000  Level Minneapolis Center
06:22PM 43.6431 -89.7394 106° East 396 456 35,000  Level Chicago Center
06:23PM 43.6167 -89.5906 104° East 397 457 35,000  Level Chicago Center
06:24PM 43.5894 -89.4411 104° East 400 460 35,000  Level Chicago Center
06:25PM 43.5575 -89.2650 104° East 404 465 35,000  Level Chicago Center
06:26PM 43.5283 -89.1133 105° East 411 473 35,000  Level Chicago Center
06:27PM 43.4994 -88.9564 104° East 420 483 35,000  Level Chicago Center
06:28PM 43.4694 -88.7997 105° East 422 486 35,000  Level Chicago Center
06:29PM 43.4394 -88.6456 105° East 421 484 35,000  Level Chicago Center
06:30PM 43.4081 -88.4858 105° East 424 488 35,000  Level Chicago Center
06:31PM 43.3758 -88.3169 105° East 422 486 35,000  Level Chicago Center
06:32PM 43.3456 -88.1628 105° East 420 483 35,000  Level Chicago Center
06:33PM 43.3106 -87.9833 105° East 416 479 35,000 -480 Level Chicago Center
06:34PM 43.2808 -87.8361 105° East 404 465 34,100 -1,020 Descending Chicago Center
06:35PM 43.2514 -87.6850 105° East 407 468 33,000 -540 Descending Chicago Center
06:36PM 43.2200 -87.5356 106° East 407 468 33,000  Level Chicago Center
06:37PM 43.1892 -87.3836 106° East 412 474 33,000  Level Chicago Center
06:39PM 43.1572 -87.2253 105° East 417 480 33,000  Level Chicago Center
06:40PM 43.1261 -87.0714 105° East 421 484 33,000  Level Chicago Center
06:41PM 43.0942 -86.9178 106° East 421 484 33,000  Level Chicago Center
06:42PM 43.0544 -86.7314 106° East 426 490 33,000  Level Chicago Center
06:43PM 43.0217 -86.5761 106° East 428 493 33,000  Level Chicago Center
06:44PM 42.9886 -86.4219 106° East 427 491 33,000  Level Chicago Center
06:45PM 42.9556 -86.2681 106° East 428 493 33,000  Level Chicago Center
06:46PM 42.9147 -86.0864 107° East 427 491 33,000  Level Chicago Center
06:47PM 42.8819 -85.9336 106° East 430 495 33,000  Level Chicago Center
06:48PM 42.8489 -85.7800 106° East 430 495 33,000  Level Chicago Center
06:49PM 42.8147 -85.6247 107° East 431 496 33,000  Level Chicago Center
06:50PM 42.7781 -85.4706 108° East 432 497 33,000  Level Chicago Center
06:51PM 42.7189 -85.3014 115° Southeast 417 480 33,000  Level Chicago Center
06:52PM 42.6686 -85.1592 116° Southeast 417 480 33,000  Level Chicago Center
06:53PM 42.6178 -85.0128 115° Southeast 425 489 33,000  Level Chicago Center
06:54PM 42.5628 -84.8706 118° Southeast 428 493 33,000  Level Chicago Center
06:55PM 42.4925 -84.7433 127° Southeast 423 487 33,000  Level Chicago Center
06:56PM 42.4211 -84.6192 128° Southeast 419 482 33,000  Level Chicago Center
06:57PM 42.3367 -84.4669 127° Southeast 420 483 33,000  Level Chicago Center
06:58PM 42.2681 -84.3433 127° Southeast 412 474 33,000  Level Chicago Center
06:59PM 42.2297 -84.2822 130° Southeast 423 487 33,000  Level Cleveland Center
07:00PM 42.1606 -84.1606 127° Southeast 418 481 33,000  Level Cleveland Center
07:01PM 42.0914 -84.0392 127° Southeast 418 481 33,000  Level Cleveland Center
07:02PM 42.0219 -83.9178 128° Southeast 413 475 33,000  Level Cleveland Center
07:03PM 41.9525 -83.7942 127° Southeast 413 475 33,000  Level Cleveland Center
07:04PM 41.8808 -83.6706 128° Southeast 413 475 33,000  Level Cleveland Center
07:05PM 41.8133 -83.5475 126° Southeast 413 475 33,000  Level Cleveland Center
07:06PM 41.7472 -83.4358 128° Southeast 413 475 33,000  Level Cleveland Center
07:07PM 41.6772 -83.3133 127° Southeast 413 475 33,000  Level Cleveland Center
07:08PM 41.6072 -83.1908 127° Southeast 413 475 33,000  Level Cleveland Center
07:09PM 41.5308 -83.0603 128° Southeast 420 483 33,000  Level Cleveland Center
07:10PM 41.4583 -82.9356 128° Southeast 420 483 33,000  Level Cleveland Center
07:11PM 41.3878 -82.8139 128° Southeast 420 483 33,000  Level Cleveland Center
07:12PM 41.3150 -82.6925 129° Southeast 420 483 33,000  Level Cleveland Center
07:13PM 41.2444 -82.5686 127° Southeast 425 489 33,000  Level Cleveland Center
07:14PM 41.1714 -82.4478 129° Southeast 425 489 33,000  Level Cleveland Center
07:15PM 41.0983 -82.3272 129° Southeast 425 489 33,000  Level Cleveland Center
07:16PM 41.0292 -82.2069 127° Southeast 425 489 33,000  Level Cleveland Center
07:17PM 40.9556 -82.0869 129° Southeast 425 489 33,000  Level Cleveland Center
07:18PM 40.8822 -81.9672 129° Southeast 425 489 33,000  Level Cleveland Center
07:19PM 40.8106 -81.8450 128° Southeast 425 489 33,000  Level Cleveland Center
07:20PM 40.7367 -81.7286 130° Southeast 425 489 33,000  Level Cleveland Center
07:21PM 40.6650 -81.6069 128° Southeast 425 489 33,000  Level Cleveland Center
07:22PM 40.5972 -81.4992 130° Southeast 425 489 33,000  Level Cleveland Center
07:23PM 40.5231 -81.3725 128° Southeast 415 478 33,000  Level Cleveland Center
07:24PM 40.4508 -81.2542 129° Southeast 415 478 33,000  Level Cleveland Center
07:25PM 40.3681 -81.1553 138° Southeast 405 466 33,000  Level Cleveland Center
07:26PM 40.2744 -81.0675 144° Southeast 405 466 33,000  Level Cleveland Center
07:27PM 40.1894 -80.9608 136° Southeast 416 479 33,000  Level Cleveland Center
07:28PM 40.1211 -80.8303 124° Southeast 431 496 33,000  Level Cleveland Center
07:29PM 40.0506 -80.6969 125° Southeast 442 509 33,000  Level Cleveland Center
07:30PM 39.9797 -80.5642 125° Southeast 442 509 33,000  Level Cleveland Center
07:31PM 39.9067 -80.4342 126° Southeast 442 509 33,000  Level Cleveland Center
07:32PM 39.8375 -80.3047 125° Southeast 442 509 33,000 -300 Level Cleveland Center
07:33PM 39.7683 -80.1753 125° Southeast 442 509 32,400 -660 Descending Cleveland Center
07:34PM 39.7033 -80.0569 126° Southeast 447 514 31,700 -480 Descending Cleveland Center
07:36PM 39.5533 -79.7822 125° Southeast 444 511 31,000 -240 Descending Washington Center
07:37PM 39.4767 -79.6433 126° Southeast 465 535 31,000  Level Washington Center
07:38PM 39.4042 -79.5050 124° Southeast 483 556 31,000  Level Washington Center
07:39PM 39.3489 -79.3492 115° Southeast 488 562 31,000 -900 Level Washington Center
07:40PM 39.2897 -79.1664 113° Southeast 504 580 29,300 -2,100 Descending Washington Center
07:41PM 39.2400 -79.0083 112° Southeast 491 565 26,800 -2,460 Descending Washington Center
07:42PM 39.2111 -78.8489 103° East 473 544 24,300 -2,520 Descending Washington Center
07:43PM 39.1967 -78.6903 97° East 459 528 21,900 -2,340 Descending Washington Center
07:44PM 39.1817 -78.5369 97° East 441 507 19,700 -2,220 Descending Washington Center
07:45PM 39.1664 -78.3919 98° East 425 489 17,500 -1,740 Descending Washington Center
07:46PM 39.1403 -78.2625 105° East 393 452 16,200 -1,200 Descending Washington Center
07:47PM 39.1075 -78.1381 109° East 368 423 15,200 -1,080 Descending Washington Center
07:48PM 39.0767 -78.0167 108° East 363 418 14,100 -1,140 Descending Washington Center
07:49PM 39.0456 -77.9008 109° East 356 410 13,000 -1,440 Descending Washington Center
07:50PM 39.0164 -77.7850 108° East 343 395 11,300 -1,020 Descending Washington Center
07:51PM 38.9911 -77.6828 108° East 316 364 11,000 -600 Descending Washington Center
07:52PM 38.9636 -77.5911 111° Southeast 283 326 10,200 -1,440 Descending Washington Center
07:53PM 38.9500 -77.4833 99° East 301 346 8,100 -1,620 Descending Potomac TRACON
07:54PM 39.0000 -77.4000 52° Northeast 289 333 7,000 -660 Descending Potomac TRACON
07:55PM 39.0500 -77.3333 46° Northeast 216 249 6,800 -840 Descending Potomac TRACON
07:56PM 39.0667 -77.2667 72° East 193 222 5,400 -1,320 Descending Potomac TRACON
07:57PM 39.0333 -77.2333 142° Southeast 169 194 4,200 -1,080 Descending Potomac TRACON
07:58PM 39.0000 -77.1833 131° Southeast 164 189 3,300 -900 Descending Potomac TRACON
07:59PM 38.9667 -77.1500 142° Southeast 161 185 2,600 -780 Descending Potomac TRACON
08:00PM 38.9333 -77.1167 142° Southeast 145 167 1,900 -720 Descending Potomac TRACON
08:01PM 38.9000 -77.0833 142° Southeast 126 145 1,100 -720 Descending Potomac TRACON
08:02PM 38.8833 -77.0667 142° Southeast 126 145 500 -600 Descending Potomac TRACON
08:04PM 38.8519 -77.0377 165° South  Level Estimated
08:11PM 38.8500 -77.0333 North  Level FlightAware Approximate